Time;durP1;ratioP1;P1;durP2;ratioP2;P2;SDS_P1;SDS_P2;PMS_P1;PMS_P2;Temp;Humidity;BMP_temperature;BMP_pressure;BME280_temperature;BME280_humidity;BME280_pressure;Samples;Min_cycle;Max_cycle;Signal;HPM_P1;HPM_P2
2021/08/20 00:00:53;;;;;;;8.77;7.85;;;15.90;99.90;;;;;;4993288;28;20207;-84
2021/08/20 00:03:19;;;;;;;11.23;8.80;;;15.90;99.90;;;;;;4993787;28;20438;-85
2021/08/20 00:05:46;;;;;;;12.33;8.73;;;15.90;99.90;;;;;;4993459;28;20531;-87
2021/08/20 00:08:13;;;;;;;14.05;8.63;;;15.90;99.90;;;;;;4994340;28;20891;-85
2021/08/20 00:10:40;;;;;;;16.73;9.93;;;15.90;99.90;;;;;;4993804;28;20208;-83
2021/08/20 00:13:07;;;;;;;10.13;8.23;;;15.90;99.90;;;;;;4993312;28;20200;-84
2021/08/20 00:15:33;;;;;;;11.80;8.23;;;15.90;99.90;;;;;;4995331;28;20203;-85
2021/08/20 00:18:02;;;;;;;12.23;9.10;;;15.90;99.90;;;;;;5002098;28;20207;-83
2021/08/20 00:20:28;;;;;;;18.03;10.23;;;15.90;99.90;;;;;;4996193;28;20204;-85
2021/08/20 00:22:55;;;;;;;19.48;10.18;;;15.90;99.90;;;;;;4994322;28;20847;-84
2021/08/20 00:25:22;;;;;;;14.80;9.23;;;15.90;99.90;;;;;;4994224;28;20200;-83
2021/08/20 00:27:49;;;;;;;13.20;9.00;;;15.90;99.90;;;;;;4993744;28;20223;-84
2021/08/20 00:30:16;;;;;;;13.07;9.40;;;15.90;99.90;;;;;;4993142;28;20208;-85
2021/08/20 00:32:43;;;;;;;12.68;9.07;;;15.80;99.90;;;;;;4991905;28;20212;-83
2021/08/20 00:35:12;;;;;;;10.50;9.03;;;15.80;99.90;;;;;;4992134;28;20204;-83
2021/08/20 00:37:38;;;;;;;12.00;9.88;;;15.80;99.90;;;;;;4991786;28;20588;-84
2021/08/20 00:40:07;;;;;;;12.43;9.60;;;15.80;99.90;;;;;;4991594;28;20196;-85
2021/08/20 00:42:34;;;;;;;13.27;8.75;;;15.80;99.90;;;;;;4992005;28;20215;-85
2021/08/20 00:45:01;;;;;;;12.52;8.63;;;15.80;99.90;;;;;;4990562;28;20247;-84
2021/08/20 00:47:28;;;;;;;11.73;8.52;;;15.80;99.90;;;;;;4991433;28;20235;-83
2021/08/20 00:49:55;;;;;;;9.40;7.60;;;15.80;99.90;;;;;;4990390;28;20222;-83
2021/08/20 00:52:24;;;;;;;8.82;7.72;;;15.90;99.90;;;;;;4992212;28;20623;-83
2021/08/20 00:54:51;;;;;;;9.70;7.75;;;15.90;99.90;;;;;;4997886;28;20250;-84
2021/08/20 00:57:18;;;;;;;11.52;9.18;;;15.90;99.90;;;;;;4988805;28;20593;-82
2021/08/20 00:59:46;;;;;;;13.80;9.38;;;15.90;99.90;;;;;;4994420;28;20203;-85
2021/08/20 01:02:13;;;;;;;12.60;8.60;;;15.90;99.90;;;;;;4998266;28;20216;-83
2021/08/20 01:04:40;;;;;;;17.50;10.82;;;15.90;99.90;;;;;;4998517;28;20208;-87
2021/08/20 01:07:08;;;;;;;13.63;9.30;;;15.90;99.90;;;;;;4994290;28;20240;-88
2021/08/20 01:09:38;;;;;;;12.40;10.00;;;15.90;99.90;;;;;;4994576;28;20207;-88
2021/08/20 01:12:05;;;;;;;12.55;9.75;;;15.90;99.90;;;;;;4994131;28;20604;-89
2021/08/20 01:14:34;;;;;;;10.98;8.80;;;15.90;99.90;;;;;;4994025;28;20223;-89
2021/08/20 01:17:01;;;;;;;11.68;9.10;;;15.90;99.90;;;;;;5009547;28;20203;-90
2021/08/20 01:19:29;;;;;;;10.70;8.13;;;15.90;99.90;;;;;;5011588;28;20203;-91
2021/08/20 01:21:56;;;;;;;9.38;7.97;;;15.90;99.90;;;;;;4992942;28;20208;-89
2021/08/20 01:24:23;;;;;;;9.93;8.47;;;15.90;99.90;;;;;;4993192;28;20203;-89
2021/08/20 01:26:52;;;;;;;16.35;12.52;;;15.90;99.90;;;;;;4975586;28;20259;-89
2021/08/20 01:29:21;;;;;;;17.73;12.70;;;16.00;99.90;;;;;;4993731;28;20206;-90
2021/08/20 01:31:48;;;;;;;15.63;11.73;;;16.00;99.90;;;;;;4992999;28;20278;-89
2021/08/20 01:34:15;;;;;;;19.83;13.70;;;15.90;99.90;;;;;;4993533;28;20204;-91
2021/08/20 01:36:42;;;;;;;17.88;14.30;;;16.00;99.90;;;;;;5004379;28;20921;-89
2021/08/20 01:39:10;;;;;;;16.63;12.90;;;15.90;99.90;;;;;;5013334;28;20615;-87
2021/08/20 01:41:37;;;;;;;23.17;16.13;;;15.90;99.90;;;;;;5012742;28;20219;-90
2021/08/20 01:44:06;;;;;;;20.88;16.05;;;15.90;99.90;;;;;;5013230;28;20243;-87
2021/08/20 01:46:33;;;;;;;22.95;16.85;;;15.90;99.90;;;;;;5013086;28;20230;-89
2021/08/20 01:49:01;;;;;;;28.60;18.58;;;15.90;99.90;;;;;;4992676;28;20220;-89
2021/08/20 01:51:29;;;;;;;25.20;19.02;;;15.90;99.90;;;;;;4993105;28;20220;-89
2021/08/20 01:53:57;;;;;;;20.75;16.65;;;15.80;99.90;;;;;;4992740;28;20210;-90
2021/08/20 01:56:25;;;;;;;30.27;21.13;;;15.80;99.90;;;;;;4992438;28;20196;-91
2021/08/20 01:58:54;;;;;;;33.60;21.98;;;15.80;99.90;;;;;;4993015;28;20243;-90
2021/08/20 02:01:23;;;;;;;26.27;19.52;;;15.80;99.90;;;;;;5008255;28;20215;-89
2021/08/20 02:03:49;;;;;;;24.83;18.13;;;15.80;99.90;;;;;;5012489;28;20201;-88
2021/08/20 02:06:16;;;;;;;26.25;18.75;;;15.80;99.90;;;;;;5012625;28;20196;-90
2021/08/20 02:08:43;;;;;;;26.73;19.52;;;15.80;99.90;;;;;;5012163;28;20637;-88
2021/08/20 02:11:10;;;;;;;33.88;23.30;;;15.80;99.90;;;;;;5005819;28;20208;-90
2021/08/20 02:13:38;;;;;;;38.42;23.80;;;15.80;99.90;;;;;;4993610;28;20211;-90
2021/08/20 02:16:06;;;;;;;38.05;24.17;;;15.80;99.90;;;;;;4993709;28;20203;-90
2021/08/20 02:18:35;;;;;;;27.80;20.40;;;15.70;99.90;;;;;;4993729;28;20204;-90
2021/08/20 02:21:02;;;;;;;36.13;22.30;;;15.70;99.90;;;;;;4992334;28;20216;-90
2021/08/20 02:23:29;;;;;;;29.52;20.40;;;15.70;99.90;;;;;;4993694;28;20621;-89
2021/08/20 02:25:56;;;;;;;26.80;18.73;;;15.80;99.90;;;;;;5005119;28;20234;-89
2021/08/20 02:28:23;;;;;;;28.30;18.90;;;15.80;99.90;;;;;;5012018;28;20234;-89
2021/08/20 02:30:50;;;;;;;32.15;21.83;;;15.80;99.90;;;;;;5011885;28;20204;-88
2021/08/20 02:33:17;;;;;;;26.50;18.42;;;15.80;99.90;;;;;;5011878;28;20226;-89
2021/08/20 02:35:45;;;;;;;24.88;17.77;;;15.80;99.90;;;;;;5008281;28;20212;-90
2021/08/20 02:38:12;;;;;;;38.95;21.98;;;15.80;99.90;;;;;;4992890;28;20223;-87
2021/08/20 02:40:39;;;;;;;32.25;21.80;;;15.90;99.90;;;;;;4992948;28;20196;-89
2021/08/20 02:43:05;;;;;;;33.08;21.95;;;15.90;99.90;;;;;;4993075;28;20215;-88
2021/08/20 02:45:32;;;;;;;37.75;22.75;;;15.90;99.90;;;;;;4992628;28;20222;-89
2021/08/20 02:47:59;;;;;;;38.75;24.88;;;15.90;99.90;;;;;;4991923;28;20224;-87
2021/08/20 02:50:26;;;;;;;42.35;25.27;;;15.90;99.90;;;;;;4993527;28;20214;-89
2021/08/20 02:52:54;;;;;;;38.45;23.77;;;15.90;99.90;;;;;;4992118;28;20214;-88
2021/08/20 02:55:21;;;;;;;36.35;23.42;;;15.90;99.90;;;;;;4992458;28;20207;-89
2021/08/20 02:57:48;;;;;;;27.92;20.55;;;15.90;99.90;;;;;;4992298;28;20218;-89
2021/08/20 03:00:15;;;;;;;39.65;25.05;;;15.90;99.90;;;;;;4992606;28;20207;-88
2021/08/20 03:02:43;;;;;;;36.80;24.70;;;15.90;99.90;;;;;;4992785;28;20615;-88
2021/08/20 03:05:10;;;;;;;27.33;19.13;;;15.90;99.90;;;;;;4992630;28;20207;-88
2021/08/20 03:07:37;;;;;;;35.10;21.73;;;15.90;99.90;;;;;;4992396;28;20236;-89
2021/08/20 03:10:06;;;;;;;30.98;21.00;;;15.90;99.90;;;;;;4996546;28;20215;-90
2021/08/20 03:12:33;;;;;;;31.50;20.90;;;15.90;99.90;;;;;;5004888;28;20208;-89
2021/08/20 03:15:00;;;;;;;28.25;17.83;;;16.00;99.90;;;;;;5013324;28;20203;-89
2021/08/20 03:17:27;;;;;;;22.80;14.43;;;16.00;99.90;;;;;;4996986;28;20628;-89
2021/08/20 03:19:53;;;;;;;19.00;11.30;;;16.10;99.90;;;;;;4996889;28;20279;-90
2021/08/20 03:22:20;;;;;;;15.90;9.95;;;16.10;99.90;;;;;;4995515;28;20207;-91
2021/08/20 03:24:47;;;;;;;20.73;9.40;;;16.30;99.90;;;;;;4995261;28;20206;-89
2021/08/20 03:27:16;;;;;;;17.02;8.48;;;16.40;99.90;;;;;;4995735;28;20228;-90
2021/08/20 03:29:43;;;;;;;21.63;9.40;;;16.50;99.90;;;;;;4995643;28;20215;-90
2021/08/20 03:32:10;;;;;;;22.40;9.40;;;16.70;99.90;;;;;;4995772;28;20204;-90
2021/08/20 03:34:36;;;;;;;14.77;8.82;;;16.80;99.90;;;;;;4995841;28;20639;-90
2021/08/20 03:37:03;;;;;;;15.57;7.38;;;16.90;99.90;;;;;;5010123;28;20203;-89
2021/08/20 03:39:30;;;;;;;15.18;7.57;;;16.90;99.90;;;;;;5010452;28;20218;-89
2021/08/20 03:41:57;;;;;;;11.95;7.07;;;16.90;99.90;;;;;;5015714;28;20295;-88
2021/08/20 03:44:26;;;;;;;19.38;9.75;;;17.00;99.90;;;;;;4998175;28;20236;-89
2021/08/20 03:46:52;;;;;;;19.42;7.85;;;17.00;99.90;;;;;;4994919;28;20212;-89
2021/08/20 03:49:19;;;;;;;16.27;7.72;;;17.10;99.90;;;;;;4995724;28;20218;-90
2021/08/20 03:51:46;;;;;;;16.45;8.85;;;17.20;99.90;;;;;;4993464;28;20231;-89
2021/08/20 03:54:14;;;;;;;16.85;7.97;;;17.20;99.90;;;;;;4994926;28;20207;-85
2021/08/20 03:56:41;;;;;;;13.90;7.80;;;17.20;99.90;;;;;;4994217;28;20607;-88
2021/08/20 03:59:08;;;;;;;19.35;10.18;;;17.20;99.90;;;;;;4995373;28;20651;-90
2021/08/20 04:01:36;;;;;;;19.05;10.55;;;17.20;99.90;;;;;;4995234;28;20203;-88
2021/08/20 04:04:03;;;;;;;19.92;10.95;;;17.20;99.90;;;;;;5010368;28;20231;-89
2021/08/20 04:06:29;;;;;;;14.77;8.93;;;17.20;99.90;;;;;;5014260;28;20227;-88
2021/08/20 04:08:56;;;;;;;21.00;11.13;;;17.20;99.90;;;;;;5013452;28;20219;-88
2021/08/20 04:11:23;;;;;;;23.08;10.27;;;17.20;99.90;;;;;;5011934;28;20207;-88
2021/08/20 04:13:50;;;;;;;18.08;8.77;;;17.20;99.90;;;;;;5009601;28;20203;-87
2021/08/20 04:16:17;;;;;;;20.73;9.50;;;17.20;99.90;;;;;;5001750;28;20215;-88
2021/08/20 04:18:45;;;;;;;19.40;8.20;;;17.30;99.90;;;;;;4994418;28;20211;-87
2021/08/20 04:21:12;;;;;;;24.77;9.38;;;17.30;99.90;;;;;;5008783;28;20207;-87
2021/08/20 04:23:39;;;;;;;21.98;7.97;;;17.30;99.90;;;;;;5011027;28;20208;-89
2021/08/20 04:26:06;;;;;;;15.18;7.93;;;17.30;99.90;;;;;;4994998;28;20215;-88
2021/08/20 04:28:33;;;;;;;12.98;7.97;;;17.30;99.90;;;;;;4994550;28;20555;-88
2021/08/20 04:31:00;;;;;;;18.45;10.23;;;17.30;99.90;;;;;;4994365;28;20210;-88
2021/08/20 04:33:27;;;;;;;19.98;11.52;;;17.30;99.90;;;;;;5004345;28;20203;-87
2021/08/20 04:35:55;;;;;;;24.00;11.10;;;17.30;99.90;;;;;;5013674;28;20211;-88
2021/08/20 04:38:22;;;;;;;19.73;11.85;;;17.30;99.90;;;;;;5014200;28;20765;-88
2021/08/20 04:40:49;;;;;;;30.27;15.30;;;17.40;99.90;;;;;;5013837;28;20199;-86
2021/08/20 04:43:18;;;;;;;28.88;13.20;;;17.40;99.90;;;;;;5013217;28;20217;-87
2021/08/20 04:45:45;;;;;;;26.92;15.82;;;17.40;99.90;;;;;;5013633;28;20199;-86
2021/08/20 04:48:12;;;;;;;34.03;16.38;;;17.40;99.90;;;;;;5012282;28;20235;-87
2021/08/20 04:50:39;;;;;;;30.95;15.75;;;17.40;99.90;;;;;;5010430;28;20211;-85
2021/08/20 04:53:07;;;;;;;24.73;14.80;;;17.40;99.90;;;;;;4993874;28;20219;-85
2021/08/20 04:55:34;;;;;;;20.33;12.85;;;17.40;99.90;;;;;;5002287;28;20210;-85
2021/08/20 04:58:01;;;;;;;22.08;13.65;;;17.50;99.90;;;;;;5014550;28;20195;-86
2021/08/20 05:00:27;;;;;;;25.55;12.40;;;17.40;99.90;;;;;;5014911;28;20208;-89
2021/08/20 05:02:54;;;;;;;17.25;11.00;;;17.40;99.90;;;;;;5014296;28;20195;-90
2021/08/20 05:05:21;;;;;;;26.30;11.48;;;17.50;99.90;;;;;;5014112;28;20203;-89
2021/08/20 05:07:48;;;;;;;22.23;10.93;;;17.50;99.90;;;;;;5013735;28;20231;-89
2021/08/20 05:10:16;;;;;;;25.70;11.32;;;17.60;99.90;;;;;;5013033;28;20877;-88
2021/08/20 05:12:43;;;;;;;22.98;11.05;;;17.60;99.90;;;;;;5012416;28;20243;-86
2021/08/20 05:15:10;;;;;;;23.90;11.40;;;17.60;99.90;;;;;;5013399;28;20210;-88
2021/08/20 05:17:37;;;;;;;23.45;10.50;;;17.60;99.90;;;;;;5012576;28;20253;-86
2021/08/20 05:20:04;;;;;;;15.40;10.73;;;17.60;99.90;;;;;;5009391;28;20219;-88
2021/08/20 05:22:48;;;;;;;20.58;10.25;;;17.60;99.90;;;;;;4993509;28;20223;-86
2021/08/20 05:25:16;;;;;;;17.58;9.40;;;17.60;99.90;;;;;;4993066;28;20607;-82
2021/08/20 05:27:43;;;;;;;14.35;8.05;;;17.60;99.90;;;;;;4992293;28;20243;-84
2021/08/20 05:30:12;;;;;;;16.40;8.73;;;17.60;99.90;;;;;;4992977;28;20207;-86
2021/08/20 05:32:39;;;;;;;13.77;9.23;;;17.50;99.90;;;;;;4988828;28;20211;-85
2021/08/20 05:35:08;;;;;;;20.02;10.32;;;17.50;99.90;;;;;;4993977;28;20223;-85
2021/08/20 05:37:35;;;;;;;15.35;9.18;;;17.50;99.90;;;;;;5011506;28;20195;-86
2021/08/20 05:40:02;;;;;;;15.18;8.38;;;17.60;99.90;;;;;;5005491;28;20727;-86
2021/08/20 05:42:30;;;;;;;14.82;10.43;;;17.50;99.90;;;;;;4992527;28;20196;-86
2021/08/20 05:44:57;;;;;;;17.60;10.68;;;17.60;99.90;;;;;;4989776;28;20235;-86
2021/08/20 05:47:24;;;;;;;17.27;10.98;;;17.60;99.90;;;;;;4991035;28;20219;-85
2021/08/20 05:49:51;;;;;;;23.35;13.07;;;17.60;99.90;;;;;;4992497;28;20340;-86
2021/08/20 05:52:18;;;;;;;17.00;10.57;;;17.60;99.90;;;;;;4994530;28;20207;-86
2021/08/20 05:54:45;;;;;;;15.13;10.38;;;17.60;99.90;;;;;;4994328;28;20195;-85
2021/08/20 05:57:12;;;;;;;22.00;9.90;;;17.60;99.90;;;;;;4993711;28;20200;-85
2021/08/20 05:59:40;;;;;;;15.05;8.95;;;17.70;99.90;;;;;;5000231;28;20226;-84
2021/08/20 06:02:07;;;;;;;16.52;9.75;;;17.70;99.90;;;;;;4992434;28;20200;-85
2021/08/20 06:04:34;;;;;;;17.27;9.18;;;17.80;99.90;;;;;;4992248;28;20206;-85
2021/08/20 06:07:01;;;;;;;14.05;8.50;;;17.80;99.90;;;;;;4993265;28;20286;-84
2021/08/20 06:09:28;;;;;;;19.85;9.50;;;17.80;99.90;;;;;;4992233;28;20512;-84
2021/08/20 06:11:55;;;;;;;14.50;9.05;;;17.80;99.90;;;;;;4991086;28;20215;-86
2021/08/20 06:14:22;;;;;;;14.82;9.45;;;17.80;99.90;;;;;;5006014;28;20196;-84
2021/08/20 06:16:54;;;;;;;14.35;8.25;;;17.80;99.90;;;;;;4999516;28;20212;-83
2021/08/20 06:19:21;;;;;;;15.43;9.07;;;17.80;99.90;;;;;;4993237;28;20659;-83
2021/08/20 06:21:48;;;;;;;12.10;8.77;;;17.90;99.90;;;;;;4993201;28;20224;-85
2021/08/20 06:24:15;;;;;;;15.63;8.95;;;17.90;99.90;;;;;;4993782;28;20215;-85
2021/08/20 06:26:41;;;;;;;18.83;9.38;;;17.90;99.90;;;;;;4991083;28;20845;-84
2021/08/20 06:29:08;;;;;;;10.93;8.13;;;18.00;99.90;;;;;;4991237;28;20624;-85
2021/08/20 06:31:35;;;;;;;12.02;8.07;;;18.00;99.90;;;;;;4994171;28;20225;-82
2021/08/20 06:34:03;;;;;;;11.77;7.45;;;18.00;99.90;;;;;;5010404;28;20209;-84
2021/08/20 06:36:30;;;;;;;14.57;9.07;;;18.10;99.90;;;;;;5010270;28;20209;-83
2021/08/20 06:38:57;;;;;;;14.73;9.52;;;18.20;99.90;;;;;;5010409;28;20199;-85
2021/08/20 06:41:24;;;;;;;17.75;9.70;;;18.20;99.90;;;;;;4997427;28;20215;-84
2021/08/20 06:43:50;;;;;;;15.20;8.60;;;18.20;99.90;;;;;;4992666;28;20227;-85
2021/08/20 06:46:17;;;;;;;13.38;8.52;;;18.30;99.90;;;;;;4995472;28;20204;-83
2021/08/20 06:48:44;;;;;;;10.27;7.53;;;18.20;99.90;;;;;;4993821;28;20231;-81
2021/08/20 06:51:15;;;;;;;15.60;8.48;;;18.20;99.90;;;;;;4994813;28;20208;-84
2021/08/20 06:53:42;;;;;;;14.80;8.38;;;18.30;99.90;;;;;;4994943;28;20659;-84
2021/08/20 06:56:09;;;;;;;16.25;8.40;;;18.30;99.90;;;;;;4994978;28;20205;-83
2021/08/20 06:58:36;;;;;;;13.40;7.25;;;18.30;99.90;;;;;;4993089;28;20203;-82
2021/08/20 07:01:03;;;;;;;9.07;6.97;;;18.30;99.90;;;;;;4993519;28;20211;-82
2021/08/20 07:03:29;;;;;;;15.35;6.80;;;18.30;99.90;;;;;;4975780;28;20290;-81
2021/08/20 07:05:56;;;;;;;12.68;8.65;;;18.30;99.90;;;;;;4993606;28;20210;-83
2021/08/20 07:08:25;;;;;;;9.70;7.10;;;18.40;99.90;;;;;;4992804;28;20239;-83
2021/08/20 07:10:51;;;;;;;11.57;7.22;;;18.40;99.90;;;;;;4993402;28;20208;-82
2021/08/20 07:13:30;;;;;;;8.85;5.90;;;18.40;99.90;;;;;;4981221;28;20200;-83
2021/08/20 07:15:57;;;;;;;11.40;7.72;;;18.40;99.90;;;;;;4991557;28;20195;-83
2021/08/20 07:18:24;;;;;;;12.05;7.43;;;18.40;99.90;;;;;;4992039;28;20220;-83
2021/08/20 07:20:51;;;;;;;9.57;6.30;;;18.40;99.90;;;;;;4991059;28;20262;-80
2021/08/20 07:23:17;;;;;;;13.02;7.95;;;18.40;99.90;;;;;;4991112;28;20195;-81
2021/08/20 07:25:46;;;;;;;14.40;8.40;;;18.50;99.90;;;;;;4991138;28;20211;-82
2021/08/20 07:28:13;;;;;;;10.05;7.05;;;18.50;99.90;;;;;;4991813;28;20231;-82
2021/08/20 07:30:40;;;;;;;8.43;5.88;;;18.50;99.90;;;;;;4978076;28;20200;-84
2021/08/20 07:33:09;;;;;;;8.68;5.05;;;18.50;99.90;;;;;;4994215;28;20208;-81
2021/08/20 07:35:36;;;;;;;8.68;5.57;;;18.50;99.90;;;;;;4999820;28;20206;-85
2021/08/20 07:38:03;;;;;;;7.95;5.47;;;18.60;99.90;;;;;;5012279;28;20212;-82
2021/08/20 07:40:30;;;;;;;6.47;4.47;;;18.60;99.90;;;;;;5012621;28;20331;-82
2021/08/20 07:42:58;;;;;;;10.88;4.78;;;18.70;99.90;;;;;;5001275;28;20215;-80
2021/08/20 07:45:25;;;;;;;7.00;5.00;;;18.70;99.90;;;;;;4993006;28;20249;-83
2021/08/20 07:47:52;;;;;;;8.25;4.90;;;18.70;99.90;;;;;;5000138;28;20216;-80
2021/08/20 07:50:19;;;;;;;9.40;4.80;;;18.80;99.90;;;;;;4991636;28;20215;-80
2021/08/20 07:52:46;;;;;;;11.32;6.28;;;18.80;99.90;;;;;;4994504;28;20608;-83
2021/08/20 07:55:14;;;;;;;10.35;5.43;;;18.80;99.90;;;;;;4991752;28;20608;-86
2021/08/20 07:57:48;;;;;;;12.13;6.00;;;18.90;99.90;;;;;;5002172;28;20207;-85
2021/08/20 08:00:19;;;;;;;11.32;7.00;;;18.90;99.90;;;;;;5005050;28;20231;-81
2021/08/20 08:02:46;;;;;;;12.68;6.40;;;19.00;99.90;;;;;;5002247;28;20207;-81
2021/08/20 08:05:13;;;;;;;9.52;5.95;;;19.10;99.90;;;;;;4999376;28;20211;-85
2021/08/20 08:07:39;;;;;;;7.97;5.18;;;19.10;99.90;;;;;;4990859;28;20539;-86
2021/08/20 08:10:12;;;;;;;8.15;5.25;;;19.30;99.90;;;;;;4998790;28;20419;-85
2021/08/20 08:12:39;;;;;;;9.20;6.25;;;19.40;99.90;;;;;;4999890;28;20219;-86
2021/08/20 08:15:07;;;;;;;7.72;5.28;;;19.50;99.90;;;;;;4997661;28;20204;-86
2021/08/20 08:17:36;;;;;;;10.50;6.28;;;19.60;99.90;;;;;;5002453;28;20569;-84
2021/08/20 08:20:04;;;;;;;10.00;6.60;;;19.80;99.90;;;;;;5004787;28;20212;-79
2021/08/20 08:22:31;;;;;;;7.55;5.20;;;20.30;99.90;;;;;;5005991;28;20203;-85
2021/08/20 08:24:58;;;;;;;8.32;5.03;;;20.70;99.90;;;;;;5007982;28;20284;-87
2021/08/20 08:27:25;;;;;;;5.82;4.47;;;21.00;99.90;;;;;;5013256;28;20207;-84
2021/08/20 08:29:52;;;;;;;5.70;4.68;;;21.10;99.90;;;;;;4992369;28;20243;-86
2021/08/20 08:32:19;;;;;;;7.55;5.13;;;21.20;99.90;;;;;;4992967;28;20203;-87
2021/08/20 08:34:47;;;;;;;5.82;4.57;;;21.40;99.90;;;;;;4992469;28;20211;-84
2021/08/20 08:37:14;;;;;;;5.63;4.28;;;21.60;99.90;;;;;;4992184;28;20769;-85
2021/08/20 08:39:40;;;;;;;4.78;4.25;;;21.70;99.90;;;;;;4991932;28;20211;-84
2021/08/20 08:42:07;;;;;;;4.93;4.28;;;21.90;99.90;;;;;;4990597;28;20219;-82
2021/08/20 08:44:36;;;;;;;8.82;4.82;;;22.00;99.90;;;;;;4990390;28;20239;-84
2021/08/20 08:47:05;;;;;;;9.02;4.03;;;22.30;99.90;;;;;;4989735;28;20235;-81
2021/08/20 08:49:33;;;;;;;6.03;4.10;;;22.50;99.90;;;;;;4989769;28;20227;-80
2021/08/20 08:52:01;;;;;;;5.10;3.72;;;22.70;99.90;;;;;;4989384;28;20313;-84
2021/08/20 08:54:28;;;;;;;5.00;4.10;;;22.70;99.90;;;;;;4990082;28;20377;-82
2021/08/20 08:56:55;;;;;;;4.00;3.40;;;22.90;99.90;;;;;;4990187;28;20207;-83
2021/08/20 08:59:21;;;;;;;4.10;3.53;;;23.20;99.90;;;;;;4991061;28;20200;-81
2021/08/20 09:01:49;;;;;;;5.68;4.32;;;23.40;99.90;;;;;;4989297;28;20200;-82
2021/08/20 09:04:18;;;;;;;5.85;4.20;;;23.50;99.90;;;;;;4989728;28;20239;-82
2021/08/20 09:06:47;;;;;;;4.50;3.35;;;23.60;99.90;;;;;;4989306;28;20652;-82
2021/08/20 09:09:18;;;;;;;5.15;3.72;;;23.80;99.90;;;;;;4973372;28;20523;-82
2021/08/20 09:11:50;;;;;;;3.05;2.80;;;24.00;99.90;;;;;;4988835;28;20208;-82
2021/08/20 09:14:18;;;;;;;9.43;4.13;;;24.10;99.90;;;;;;4988916;28;20199;-81
2021/08/20 09:16:46;;;;;;;4.72;3.60;;;24.10;99.90;;;;;;5003398;28;20211;-82
2021/08/20 09:19:15;;;;;;;4.75;3.13;;;24.20;99.90;;;;;;4993017;28;20272;-83
2021/08/20 09:21:46;;;;;;;4.85;3.25;;;24.30;99.90;;;;;;4989988;28;20231;-82
2021/08/20 09:24:36;;;;;;;5.80;3.60;;;24.40;99.90;;;;;;4995011;28;20195;-83
2021/08/20 09:27:26;;;;;;;4.82;4.00;;;24.40;99.90;;;;;;4989845;28;20253;-82
2021/08/20 09:30:04;;;;;;;4.70;3.92;;;24.40;99.90;;;;;;4994337;28;20227;-83
2021/08/20 09:32:30;;;;;;;4.70;3.47;;;24.50;99.90;;;;;;4991858;28;20210;-82
2021/08/20 09:34:58;;;;;;;5.82;2.80;;;24.60;99.90;;;;;;5003837;28;20215;-82
2021/08/20 09:37:26;;;;;;;3.88;3.20;;;24.70;99.90;;;;;;4999215;28;20199;-82
2021/08/20 09:40:00;;;;;;;6.07;3.17;;;24.50;99.90;;;;;;4996401;28;20206;-83
2021/08/20 09:42:27;;;;;;;4.05;2.92;;;24.50;99.90;;;;;;4987652;28;20322;-81
2021/08/20 09:45:15;;;;;;;5.50;3.40;;;24.60;99.90;;;;;;4992754;28;20696;-80
2021/08/20 09:47:44;;;;;;;5.88;3.78;;;24.70;99.90;;;;;;4997183;28;20215;-84
2021/08/20 09:50:12;;;;;;;4.78;3.70;;;24.80;99.90;;;;;;4996058;28;20227;-82
2021/08/20 09:52:39;;;;;;;4.45;3.13;;;24.80;99.90;;;;;;4990286;28;20212;-80
2021/08/20 09:55:08;;;;;;;4.25;3.13;;;24.60;99.90;;;;;;4993507;28;20256;-82
2021/08/20 09:57:38;;;;;;;3.72;2.55;;;24.50;99.90;;;;;;4992706;28;20586;-82
2021/08/20 10:00:09;;;;;;;3.40;3.10;;;24.30;99.90;;;;;;4992119;28;20298;-83
2021/08/20 10:02:38;;;;;;;3.28;2.63;;;24.10;99.90;;;;;;4995788;28;20723;-81
2021/08/20 10:05:06;;;;;;;5.85;2.90;;;24.10;99.90;;;;;;4991931;28;20207;-82
2021/08/20 10:07:38;;;;;;;3.45;2.90;;;24.10;99.90;;;;;;4991214;28;20226;-81
2021/08/20 10:10:09;;;;;;;4.78;2.60;;;23.90;99.90;;;;;;4997315;28;20230;-82
2021/08/20 10:12:40;;;;;;;3.45;2.65;;;23.70;99.90;;;;;;5003860;28;20250;-83
2021/08/20 10:15:08;;;;;;;4.25;2.90;;;23.50;99.90;;;;;;4998452;28;20207;-81
2021/08/20 10:17:36;;;;;;;3.90;2.78;;;23.20;99.90;;;;;;4994157;28;20208;-82
2021/08/20 10:20:05;;;;;;;3.90;3.50;;;23.10;99.90;;;;;;4989813;28;20445;-82
2021/08/20 10:22:32;;;;;;;5.15;3.33;;;23.10;99.90;;;;;;4988093;28;20215;-82
2021/08/20 10:25:02;;;;;;;3.65;3.10;;;23.00;99.90;;;;;;4986293;28;20207;-82
2021/08/20 10:27:32;;;;;;;3.35;2.67;;;23.10;99.90;;;;;;4987112;28;20302;-81
2021/08/20 10:30:00;;;;;;;3.20;2.55;;;23.00;99.90;;;;;;4986243;28;20290;-80
2021/08/20 10:32:26;;;;;;;4.30;2.90;;;23.00;99.90;;;;;;4985714;28;20270;-83
2021/08/20 10:34:53;;;;;;;3.97;2.78;;;23.10;99.90;;;;;;4986182;28;20211;-82
2021/08/20 10:37:27;;;;;;;3.42;2.95;;;23.00;99.90;;;;;;4987897;28;20230;-83
2021/08/20 10:39:55;;;;;;;4.93;4.03;;;23.00;99.90;;;;;;4986834;28;20199;-81
2021/08/20 10:42:24;;;;;;;3.97;3.17;;;22.90;99.90;;;;;;4986945;28;20927;-86
2021/08/20 10:45:04;;;;;;;4.13;3.53;;;22.80;99.90;;;;;;4987205;28;20239;-83
2021/08/20 10:47:31;;;;;;;2.63;2.28;;;22.80;99.90;;;;;;4987154;28;20199;-81
2021/08/20 10:50:10;;;;;;;4.38;2.70;;;22.60;99.90;;;;;;4986246;28;20742;-81
2021/08/20 10:52:40;;;;;;;5.07;2.95;;;22.60;99.90;;;;;;4985841;28;20214;-81
2021/08/20 10:55:21;;;;;;;5.85;3.80;;;22.60;99.90;;;;;;4986185;28;20204;-80
2021/08/20 10:58:09;;;;;;;5.40;2.80;;;22.90;99.90;;;;;;4986003;28;20207;-81
2021/08/20 11:00:43;;;;;;;5.57;2.72;;;23.00;99.90;;;;;;4986231;28;20205;-83
2021/08/20 11:03:11;;;;;;;4.15;3.70;;;23.10;99.90;;;;;;4988568;28;20211;-81
2021/08/20 11:05:49;;;;;;;4.40;2.90;;;23.20;99.90;;;;;;4988837;28;20593;-82
2021/08/20 11:08:38;;;;;;;4.32;3.92;;;23.10;99.90;;;;;;4988831;28;20631;-81
2021/08/20 11:11:05;;;;;;;3.97;3.40;;;23.10;99.90;;;;;;4988485;28;20302;-82
2021/08/20 11:13:32;;;;;;;5.28;4.78;;;23.00;99.90;;;;;;4985545;28;20203;-81
2021/08/20 11:16:02;;;;;;;5.43;4.85;;;23.10;99.90;;;;;;4984383;28;20193;-80
2021/08/20 11:18:45;;;;;;;5.50;3.92;;;23.10;99.90;;;;;;4985891;28;20215;-81
2021/08/20 11:21:26;;;;;;;4.18;3.78;;;23.20;99.90;;;;;;4987562;28;20491;-82
2021/08/20 11:24:12;;;;;;;7.68;3.97;;;23.30;99.90;;;;;;4986604;28;20212;-80
2021/08/20 11:26:42;;;;;;;3.33;2.88;;;23.30;99.90;;;;;;4989908;28;20208;-83
2021/08/20 11:29:11;;;;;;;4.93;2.40;;;23.20;99.90;;;;;;4993406;28;20267;-81
2021/08/20 11:31:39;;;;;;;4.30;2.33;;;23.00;99.90;;;;;;4993685;28;20239;-82
2021/08/20 11:34:06;;;;;;;3.47;2.13;;;22.80;99.90;;;;;;4992176;28;20208;-81
2021/08/20 11:36:33;;;;;;;3.63;2.00;;;22.80;99.90;;;;;;4990995;28;20207;-82
2021/08/20 11:39:01;;;;;;;3.78;2.03;;;22.80;99.90;;;;;;4990690;28;20204;-81
2021/08/20 11:41:36;;;;;;;3.47;1.90;;;22.90;99.90;;;;;;4990496;28;20663;-81
2021/08/20 11:44:05;;;;;;;4.60;2.28;;;22.80;99.90;;;;;;4981673;28;20812;-81
2021/08/20 11:46:37;;;;;;;3.72;2.17;;;22.80;99.90;;;;;;4969794;28;20211;-82
2021/08/20 11:49:06;;;;;;;3.38;1.80;;;22.80;99.90;;;;;;4969296;28;20209;-81
2021/08/20 11:51:35;;;;;;;3.20;1.92;;;22.90;99.90;;;;;;4969617;28;20228;-82
2021/08/20 11:54:04;;;;;;;4.82;2.30;;;23.10;99.90;;;;;;4969743;28;20622;-80
2021/08/20 11:56:32;;;;;;;5.20;2.10;;;23.30;99.90;;;;;;4985261;28;20212;-80
2021/08/20 11:59:08;;;;;;;5.78;2.20;;;23.40;99.90;;;;;;4967700;28;20221;-79
2021/08/20 12:01:35;;;;;;;5.53;2.53;;;23.40;99.90;;;;;;4968089;28;20212;-82
2021/08/20 12:04:02;;;;;;;4.50;2.55;;;23.50;99.90;;;;;;4978897;28;20222;-81
2021/08/20 12:06:32;;;;;;;5.25;2.58;;;23.60;99.90;;;;;;4985567;28;20224;-82
2021/08/20 12:09:09;;;;;;;4.00;2.35;;;23.60;99.90;;;;;;4972731;28;20216;-81
2021/08/20 12:11:36;;;;;;;3.90;2.08;;;23.60;99.90;;;;;;4971337;28;20342;-81
2021/08/20 12:14:03;;;;;;;4.05;2.28;;;23.50;99.90;;;;;;4969249;28;20521;-81
2021/08/20 12:16:33;;;;;;;3.42;2.17;;;23.40;99.90;;;;;;4970025;28;20219;-82
2021/08/20 12:19:11;;;;;;;6.53;2.50;;;23.20;99.90;;;;;;4969185;28;20227;-82
2021/08/20 12:21:39;;;;;;;3.78;2.08;;;23.00;99.90;;;;;;4974429;28;20212;-82
2021/08/20 12:24:07;;;;;;;3.97;2.17;;;22.80;99.90;;;;;;4988346;28;20204;-82
2021/08/20 12:26:34;;;;;;;3.20;2.10;;;22.70;99.90;;;;;;4978440;28;20208;-80
2021/08/20 12:29:13;;;;;;;5.95;2.45;;;22.60;99.90;;;;;;4968797;28;20213;-84
2021/08/20 12:31:40;;;;;;;5.05;2.60;;;22.60;99.90;;;;;;4968644;28;20323;-79
2021/08/20 12:34:08;;;;;;;4.80;2.15;;;22.60;99.90;;;;;;4968507;28;20213;-81
2021/08/20 12:36:35;;;;;;;5.45;1.85;;;22.60;99.90;;;;;;4971989;28;20216;-82
2021/08/20 12:39:12;;;;;;;3.55;1.90;;;22.60;99.90;;;;;;4967847;28;20213;-81
2021/08/20 12:41:40;;;;;;;5.38;2.25;;;22.50;99.90;;;;;;4968615;28;20526;-81
2021/08/20 12:44:08;;;;;;;5.82;2.67;;;22.50;99.90;;;;;;4967682;28;20255;-81